sensor_id;sensor_type;location;lat;lon;timestamp;pressure;altitude;pressure_sealevel;temperature;humidity
32933;BME280;19444;50.518;10.870;2023-04-02T00:02:31;95546.59;;;6.83;100.00
32933;BME280;19444;50.518;10.870;2023-04-02T00:05:44;95552.88;;;6.87;100.00
32933;BME280;19444;50.518;10.870;2023-04-02T00:08:47;95551.00;;;6.88;100.00
32933;BME280;19444;50.518;10.870;2023-04-02T00:11:47;95551.91;;;6.83;100.00
32933;BME280;19444;50.518;10.870;2023-04-02T00:14:49;95554.88;;;6.81;100.00
32933;BME280;19444;50.518;10.870;2023-04-02T00:17:47;95556.44;;;6.82;100.00
32933;BME280;19444;50.518;10.870;2023-04-02T00:21:08;95558.50;;;6.85;100.00
32933;BME280;19444;50.518;10.870;2023-04-02T00:24:18;95562.91;;;6.90;100.00
32933;BME280;19444;50.518;10.870;2023-04-02T00:27:16;95568.88;;;6.87;100.00
32933;BME280;19444;50.518;10.870;2023-04-02T00:30:14;95571.81;;;6.85;100.00
32933;BME280;19444;50.518;10.870;2023-04-02T00:33:15;95574.78;;;6.84;100.00
32933;BME280;19444;50.518;10.870;2023-04-02T00:36:13;95579.78;;;6.85;100.00
32933;BME280;19444;50.518;10.870;2023-04-02T00:39:20;95584.84;;;6.87;100.00
32933;BME280;19444;50.518;10.870;2023-04-02T00:42:19;95586.22;;;6.84;100.00
32933;BME280;19444;50.518;10.870;2023-04-02T00:45:25;95588.09;;;6.84;100.00
32933;BME280;19444;50.518;10.870;2023-04-02T00:51:57;95594.34;;;6.79;100.00
32933;BME280;19444;50.518;10.870;2023-04-02T00:55:08;95597.00;;;6.79;100.00
32933;BME280;19444;50.518;10.870;2023-04-02T00:58:51;95594.16;;;6.76;100.00
32933;BME280;19444;50.518;10.870;2023-04-02T01:01:56;95603.75;;;6.85;100.00
32933;BME280;19444;50.518;10.870;2023-04-02T01:05:19;95604.13;;;6.93;100.00
32933;BME280;19444;50.518;10.870;2023-04-02T01:08:45;95600.16;;;6.81;100.00
32933;BME280;19444;50.518;10.870;2023-04-02T01:12:25;95605.00;;;6.79;100.00
32933;BME280;19444;50.518;10.870;2023-04-02T01:15:39;95602.66;;;6.78;100.00
32933;BME280;19444;50.518;10.870;2023-04-02T01:19:01;95606.41;;;6.77;100.00
32933;BME280;19444;50.518;10.870;2023-04-02T01:22:20;95609.72;;;6.82;100.00
32933;BME280;19444;50.518;10.870;2023-04-02T01:25:28;95625.94;;;6.72;100.00
32933;BME280;19444;50.518;10.870;2023-04-02T01:29:11;95616.22;;;6.68;100.00
32933;BME280;19444;50.518;10.870;2023-04-02T01:32:13;95622.91;;;6.65;100.00
32933;BME280;19444;50.518;10.870;2023-04-02T01:35:12;95630.00;;;6.70;100.00
32933;BME280;19444;50.518;10.870;2023-04-02T01:38:26;95636.69;;;6.67;100.00
32933;BME280;19444;50.518;10.870;2023-04-02T01:41:35;95649.91;;;6.72;100.00
32933;BME280;19444;50.518;10.870;2023-04-02T01:44:52;95648.28;;;6.63;100.00
32933;BME280;19444;50.518;10.870;2023-04-02T01:47:50;95653.28;;;6.64;100.00
32933;BME280;19444;50.518;10.870;2023-04-02T01:50:49;95653.22;;;6.55;100.00
32933;BME280;19444;50.518;10.870;2023-04-02T01:53:47;95658.19;;;6.48;100.00
32933;BME280;19444;50.518;10.870;2023-04-02T01:56:45;95667.09;;;6.30;100.00
32933;BME280;19444;50.518;10.870;2023-04-02T01:59:44;95680.63;;;6.34;100.00
32933;BME280;19444;50.518;10.870;2023-04-02T02:02:42;95676.63;;;6.09;100.00
32933;BME280;19444;50.518;10.870;2023-04-02T02:05:42;95686.56;;;6.03;100.00
32933;BME280;19444;50.518;10.870;2023-04-02T02:08:57;95702.03;;;6.01;100.00
32933;BME280;19444;50.518;10.870;2023-04-02T02:11:57;95698.72;;;5.95;100.00
32933;BME280;19444;50.518;10.870;2023-04-02T02:14:55;95703.31;;;5.90;100.00
32933;BME280;19444;50.518;10.870;2023-04-02T02:18:02;95715.81;;;5.76;100.00
32933;BME280;19444;50.518;10.870;2023-04-02T02:21:02;95725.38;;;5.63;100.00
32933;BME280;19444;50.518;10.870;2023-04-02T02:24:01;95723.59;;;5.58;100.00
32933;BME280;19444;50.518;10.870;2023-04-02T02:30:40;95738.44;;;5.46;100.00
32933;BME280;19444;50.518;10.870;2023-04-02T02:33:44;95751.13;;;5.35;100.00
32933;BME280;19444;50.518;10.870;2023-04-02T02:36:54;95758.50;;;5.38;100.00
32933;BME280;19444;50.518;10.870;2023-04-02T02:39:55;95755.31;;;5.22;100.00
32933;BME280;19444;50.518;10.870;2023-04-02T02:43:00;95774.19;;;5.21;100.00
32933;BME280;19444;50.518;10.870;2023-04-02T02:45:58;95776.75;;;4.93;100.00
32933;BME280;19444;50.518;10.870;2023-04-02T02:48:58;95778.34;;;4.94;100.00
32933;BME280;19444;50.518;10.870;2023-04-02T02:55:14;95792.03;;;4.82;100.00
32933;BME280;19444;50.518;10.870;2023-04-02T02:58:42;95800.78;;;4.83;100.00
32933;BME280;19444;50.518;10.870;2023-04-02T03:01:40;95812.84;;;4.75;100.00
32933;BME280;19444;50.518;10.870;2023-04-02T03:04:37;95814.94;;;4.60;100.00
32933;BME280;19444;50.518;10.870;2023-04-02T03:07:34;95819.94;;;4.61;100.00
32933;BME280;19444;50.518;10.870;2023-04-02T03:10:49;95826.66;;;4.53;100.00
32933;BME280;19444;50.518;10.870;2023-04-02T03:13:50;95832.81;;;4.30;100.00
32933;BME280;19444;50.518;10.870;2023-04-02T03:16:59;95834.94;;;4.28;100.00
32933;BME280;19444;50.518;10.870;2023-04-02T03:23:36;95850.13;;;4.22;100.00
32933;BME280;19444;50.518;10.870;2023-04-02T03:26:48;95857.16;;;4.08;100.00
32933;BME280;19444;50.518;10.870;2023-04-02T03:30:36;95862.72;;;4.12;100.00
32933;BME280;19444;50.518;10.870;2023-04-02T03:33:44;95867.91;;;3.93;100.00
32933;BME280;19444;50.518;10.870;2023-04-02T03:36:55;95874.16;;;4.07;100.00
32933;BME280;19444;50.518;10.870;2023-04-02T03:40:27;95879.84;;;3.95;100.00
32933;BME280;19444;50.518;10.870;2023-04-02T03:43:32;95885.75;;;3.87;100.00
32933;BME280;19444;50.518;10.870;2023-04-02T03:46:38;95887.16;;;3.80;100.00
32933;BME280;19444;50.518;10.870;2023-04-02T03:49:55;95891.53;;;3.94;100.00
32933;BME280;19444;50.518;10.870;2023-04-02T03:52:53;95896.34;;;3.87;100.00
32933;BME280;19444;50.518;10.870;2023-04-02T03:55:50;95903.44;;;3.63;100.00
32933;BME280;19444;50.518;10.870;2023-04-02T03:59:09;95909.19;;;3.75;100.00
32933;BME280;19444;50.518;10.870;2023-04-02T04:02:41;95915.59;;;3.69;100.00
32933;BME280;19444;50.518;10.870;2023-04-02T04:06:01;95922.66;;;3.79;100.00
32933;BME280;19444;50.518;10.870;2023-04-02T04:12:35;95934.16;;;3.69;100.00
32933;BME280;19444;50.518;10.870;2023-04-02T04:16:04;95949.06;;;3.55;100.00
32933;BME280;19444;50.518;10.870;2023-04-02T04:19:17;95948.53;;;3.58;100.00
32933;BME280;19444;50.518;10.870;2023-04-02T04:22:26;95945.91;;;3.58;100.00
32933;BME280;19444;50.518;10.870;2023-04-02T04:25:28;95948.63;;;3.42;100.00
32933;BME280;19444;50.518;10.870;2023-04-02T04:32:33;95976.28;;;3.26;100.00
32933;BME280;19444;50.518;10.870;2023-04-02T04:35:35;95977.09;;;3.22;100.00
32933;BME280;19444;50.518;10.870;2023-04-02T04:38:39;95981.75;;;3.40;100.00
32933;BME280;19444;50.518;10.870;2023-04-02T04:41:41;95991.66;;;3.19;100.00
32933;BME280;19444;50.518;10.870;2023-04-02T04:44:45;95999.66;;;3.09;100.00
32933;BME280;19444;50.518;10.870;2023-04-02T04:48:00;96008.69;;;3.03;100.00
32933;BME280;19444;50.518;10.870;2023-04-02T04:51:14;96014.78;;;3.03;100.00
32933;BME280;19444;50.518;10.870;2023-04-02T04:54:14;96021.16;;;2.97;100.00
32933;BME280;19444;50.518;10.870;2023-04-02T04:57:30;96023.78;;;2.97;100.00
32933;BME280;19444;50.518;10.870;2023-04-02T05:01:03;96033.81;;;3.05;100.00
32933;BME280;19444;50.518;10.870;2023-04-02T05:04:36;96035.75;;;2.84;100.00
32933;BME280;19444;50.518;10.870;2023-04-02T05:07:48;96043.97;;;2.78;100.00
32933;BME280;19444;50.518;10.870;2023-04-02T05:11:13;96051.09;;;2.88;100.00
32933;BME280;19444;50.518;10.870;2023-04-02T05:14:30;96056.38;;;2.82;100.00
32933;BME280;19444;50.518;10.870;2023-04-02T05:20:55;96066.19;;;2.77;100.00
32933;BME280;19444;50.518;10.870;2023-04-02T05:24:40;96074.41;;;2.70;100.00
32933;BME280;19444;50.518;10.870;2023-04-02T05:27:59;96073.31;;;2.81;100.00
32933;BME280;19444;50.518;10.870;2023-04-02T05:31:09;96081.81;;;2.68;100.00
32933;BME280;19444;50.518;10.870;2023-04-02T05:34:10;96087.91;;;2.64;100.00
32933;BME280;19444;50.518;10.870;2023-04-02T05:37:21;96091.63;;;2.63;100.00
32933;BME280;19444;50.518;10.870;2023-04-02T05:40:36;96092.66;;;2.77;100.00
32933;BME280;19444;50.518;10.870;2023-04-02T05:43:36;96102.19;;;2.73;100.00
32933;BME280;19444;50.518;10.870;2023-04-02T05:46:42;96105.13;;;2.66;100.00
32933;BME280;19444;50.518;10.870;2023-04-02T05:53:33;96117.81;;;2.54;100.00
32933;BME280;19444;50.518;10.870;2023-04-02T05:56:41;96125.47;;;2.61;100.00
32933;BME280;19444;50.518;10.870;2023-04-02T05:59:46;96115.69;;;2.71;100.00
32933;BME280;19444;50.518;10.870;2023-04-02T06:03:15;96133.69;;;2.54;100.00
32933;BME280;19444;50.518;10.870;2023-04-02T06:13:07;96148.22;;;2.46;100.00
32933;BME280;19444;50.518;10.870;2023-04-02T06:16:05;96146.63;;;2.55;100.00
32933;BME280;19444;50.518;10.870;2023-04-02T06:19:07;96159.06;;;2.45;100.00
32933;BME280;19444;50.518;10.870;2023-04-02T06:22:23;96162.78;;;2.69;100.00
32933;BME280;19444;50.518;10.870;2023-04-02T06:25:32;96166.75;;;2.51;100.00
32933;BME280;19444;50.518;10.870;2023-04-02T06:28:49;96174.69;;;2.56;100.00
32933;BME280;19444;50.518;10.870;2023-04-02T06:32:00;96182.63;;;2.67;100.00
32933;BME280;19444;50.518;10.870;2023-04-02T06:34:57;96187.66;;;2.48;100.00
32933;BME280;19444;50.518;10.870;2023-04-02T06:37:57;96198.78;;;2.75;100.00
32933;BME280;19444;50.518;10.870;2023-04-02T06:41:13;96192.13;;;2.63;100.00
32933;BME280;19444;50.518;10.870;2023-04-02T06:44:19;96191.63;;;2.66;100.00
32933;BME280;19444;50.518;10.870;2023-04-02T06:47:33;96214.63;;;2.50;100.00
32933;BME280;19444;50.518;10.870;2023-04-02T06:50:41;96221.75;;;2.54;100.00
32933;BME280;19444;50.518;10.870;2023-04-02T06:53:44;96222.84;;;2.59;100.00
32933;BME280;19444;50.518;10.870;2023-04-02T06:56:50;96225.72;;;2.62;100.00
32933;BME280;19444;50.518;10.870;2023-04-02T06:59:48;96231.81;;;2.63;100.00
32933;BME280;19444;50.518;10.870;2023-04-02T07:02:45;96236.34;;;2.67;100.00
32933;BME280;19444;50.518;10.870;2023-04-02T07:05:42;96248.50;;;2.68;100.00
32933;BME280;19444;50.518;10.870;2023-04-02T07:08:39;96248.78;;;2.77;100.00
32933;BME280;19444;50.518;10.870;2023-04-02T07:11:36;96259.63;;;2.80;100.00
32933;BME280;19444;50.518;10.870;2023-04-02T07:14:33;96267.56;;;2.80;100.00
32933;BME280;19444;50.518;10.870;2023-04-02T07:17:30;96256.72;;;3.02;100.00
32933;BME280;19444;50.518;10.870;2023-04-02T07:20:33;96275.50;;;2.75;100.00
32933;BME280;19444;50.518;10.870;2023-04-02T07:23:33;96270.72;;;2.72;100.00
32933;BME280;19444;50.518;10.870;2023-04-02T07:26:30;96275.47;;;2.70;100.00
32933;BME280;19444;50.518;10.870;2023-04-02T07:29:26;96286.59;;;2.57;100.00
32933;BME280;19444;50.518;10.870;2023-04-02T07:32:23;96298.00;;;2.88;100.00
32933;BME280;19444;50.518;10.870;2023-04-02T07:35:20;96291.63;;;2.74;100.00
32933;BME280;19444;50.518;10.870;2023-04-02T07:38:18;96310.19;;;2.84;100.00
32933;BME280;19444;50.518;10.870;2023-04-02T07:41:15;96302.75;;;2.76;100.00
32933;BME280;19444;50.518;10.870;2023-04-02T07:44:13;96324.94;;;2.60;100.00
32933;BME280;19444;50.518;10.870;2023-04-02T07:47:10;96319.66;;;2.70;100.00
32933;BME280;19444;50.518;10.870;2023-04-02T07:50:08;96321.78;;;2.68;100.00
32933;BME280;19444;50.518;10.870;2023-04-02T07:53:05;96330.72;;;2.51;100.00
32933;BME280;19444;50.518;10.870;2023-04-02T07:56:05;96331.84;;;2.71;100.00
32933;BME280;19444;50.518;10.870;2023-04-02T07:59:03;96329.75;;;2.78;100.00
32933;BME280;19444;50.518;10.870;2023-04-02T08:02:00;96351.41;;;2.70;100.00
32933;BME280;19444;50.518;10.870;2023-04-02T08:04:58;96353.53;;;2.68;100.00
32933;BME280;19444;50.518;10.870;2023-04-02T08:07:55;96349.34;;;2.87;100.00
32933;BME280;19444;50.518;10.870;2023-04-02T08:10:52;96359.88;;;2.67;100.00
32933;BME280;19444;50.518;10.870;2023-04-02T08:13:51;96367.06;;;2.76;100.00
32933;BME280;19444;50.518;10.870;2023-04-02T08:16:53;96374.72;;;2.83;100.00
32933;BME280;19444;50.518;10.870;2023-04-02T08:19:51;96370.28;;;2.94;100.00
32933;BME280;19444;50.518;10.870;2023-04-02T08:22:51;96380.84;;;2.89;100.00
32933;BME280;19444;50.518;10.870;2023-04-02T08:25:48;96379.78;;;2.84;100.00
32933;BME280;19444;50.518;10.870;2023-04-02T08:28:45;96384.00;;;2.80;100.00
32933;BME280;19444;50.518;10.870;2023-04-02T08:31:42;96386.19;;;3.04;100.00
32933;BME280;19444;50.518;10.870;2023-04-02T08:34:39;96393.53;;;2.92;100.00
32933;BME280;19444;50.518;10.870;2023-04-02T08:37:37;96395.09;;;2.82;100.00
32933;BME280;19444;50.518;10.870;2023-04-02T08:40:38;96402.31;;;3.02;100.00
32933;BME280;19444;50.518;10.870;2023-04-02T08:47:07;96418.13;;;2.82;100.00
32933;BME280;19444;50.518;10.870;2023-04-02T08:50:22;96414.16;;;2.79;100.00
32933;BME280;19444;50.518;10.870;2023-04-02T08:53:25;96422.88;;;2.75;100.00
32933;BME280;19444;50.518;10.870;2023-04-02T08:59:38;96437.91;;;2.64;100.00
32933;BME280;19444;50.518;10.870;2023-04-02T09:02:40;96434.72;;;2.62;100.00
32933;BME280;19444;50.518;10.870;2023-04-02T09:05:43;96444.56;;;2.72;100.00
32933;BME280;19444;50.518;10.870;2023-04-02T09:08:44;96434.22;;;2.65;100.00
32933;BME280;19444;50.518;10.870;2023-04-02T09:11:58;96440.47;;;2.44;100.00
32933;BME280;19444;50.518;10.870;2023-04-02T09:15:16;96457.03;;;2.76;100.00
32933;BME280;19444;50.518;10.870;2023-04-02T09:18:19;96451.13;;;2.64;100.00
32933;BME280;19444;50.518;10.870;2023-04-02T09:21:37;96467.34;;;2.83;100.00
32933;BME280;19444;50.518;10.870;2023-04-02T09:24:37;96473.88;;;2.60;100.00
32933;BME280;19444;50.518;10.870;2023-04-02T09:27:35;96476.75;;;2.53;100.00
32933;BME280;19444;50.518;10.870;2023-04-02T09:30:59;96473.31;;;2.53;100.00
32933;BME280;19444;50.518;10.870;2023-04-02T09:33:58;96485.53;;;2.64;100.00
32933;BME280;19444;50.518;10.870;2023-04-02T09:36:56;96497.78;;;2.80;100.00
32933;BME280;19444;50.518;10.870;2023-04-02T09:40:20;96502.09;;;2.97;100.00
32933;BME280;19444;50.518;10.870;2023-04-02T09:43:21;96516.34;;;2.91;100.00
32933;BME280;19444;50.518;10.870;2023-04-02T09:46:24;96520.47;;;2.66;100.00
32933;BME280;19444;50.518;10.870;2023-04-02T09:49:27;96519.06;;;2.48;100.00
32933;BME280;19444;50.518;10.870;2023-04-02T09:52:27;96535.50;;;2.61;100.00
32933;BME280;19444;50.518;10.870;2023-04-02T09:55:28;96549.75;;;2.54;100.00
32933;BME280;19444;50.518;10.870;2023-04-02T09:58:26;96558.69;;;2.43;100.00
32933;BME280;19444;50.518;10.870;2023-04-02T10:01:29;96555.09;;;2.60;100.00
32933;BME280;19444;50.518;10.870;2023-04-02T10:04:44;96559.66;;;2.32;100.00
32933;BME280;19444;50.518;10.870;2023-04-02T10:07:52;96564.00;;;2.48;100.00
32933;BME280;19444;50.518;10.870;2023-04-02T10:10:54;96564.19;;;2.37;100.00
32933;BME280;19444;50.518;10.870;2023-04-02T10:14:03;96569.50;;;2.42;100.00
32933;BME280;19444;50.518;10.870;2023-04-02T10:17:26;96576.84;;;2.35;100.00
32933;BME280;19444;50.518;10.870;2023-04-02T10:20:25;96585.56;;;2.30;100.00
32933;BME280;19444;50.518;10.870;2023-04-02T10:23:29;96597.50;;;2.38;100.00
32933;BME280;19444;50.518;10.870;2023-04-02T10:26:58;96599.59;;;2.36;100.00
32933;BME280;19444;50.518;10.870;2023-04-02T10:30:22;96600.69;;;2.08;100.00
32933;BME280;19444;50.518;10.870;2023-04-02T10:33:28;96601.91;;;2.59;100.00
32933;BME280;19444;50.518;10.870;2023-04-02T10:36:52;96605.88;;;2.24;100.00
32933;BME280;19444;50.518;10.870;2023-04-02T10:40:30;96632.81;;;1.94;100.00
32933;BME280;19444;50.518;10.870;2023-04-02T10:43:43;96619.50;;;2.11;100.00
32933;BME280;19444;50.518;10.870;2023-04-02T10:50:44;96624.31;;;2.19;100.00
32933;BME280;19444;50.518;10.870;2023-04-02T10:54:24;96629.22;;;1.79;100.00
32933;BME280;19444;50.518;10.870;2023-04-02T10:57:37;96636.81;;;1.97;100.00
32933;BME280;19444;50.518;10.870;2023-04-02T11:00:38;96656.06;;;1.92;100.00
32933;BME280;19444;50.518;10.870;2023-04-02T11:03:50;96658.94;;;1.91;100.00
32933;BME280;19444;50.518;10.870;2023-04-02T11:06:57;96675.00;;;1.84;100.00
32933;BME280;19444;50.518;10.870;2023-04-02T11:10:14;96672.56;;;2.05;100.00
32933;BME280;19444;50.518;10.870;2023-04-02T11:13:31;96676.25;;;1.82;100.00
32933;BME280;19444;50.518;10.870;2023-04-02T11:16:32;96682.66;;;1.86;100.00
32933;BME280;19444;50.518;10.870;2023-04-02T11:19:33;96698.97;;;1.78;100.00
32933;BME280;19444;50.518;10.870;2023-04-02T11:22:31;96699.69;;;1.73;100.00
32933;BME280;19444;50.518;10.870;2023-04-02T11:25:28;96694.75;;;1.82;100.00
32933;BME280;19444;50.518;10.870;2023-04-02T11:28:29;96700.69;;;1.67;100.00
32933;BME280;19444;50.518;10.870;2023-04-02T11:31:27;96714.00;;;1.99;100.00
32933;BME280;19444;50.518;10.870;2023-04-02T11:37:44;96724.25;;;1.52;100.00
32933;BME280;19444;50.518;10.870;2023-04-02T11:40:58;96724.63;;;1.60;100.00
32933;BME280;19444;50.518;10.870;2023-04-02T11:44:00;96730.47;;;1.62;100.00
32933;BME280;19444;50.518;10.870;2023-04-02T11:47:21;96727.75;;;2.01;100.00
32933;BME280;19444;50.518;10.870;2023-04-02T11:50:35;96737.06;;;2.04;100.00
32933;BME280;19444;50.518;10.870;2023-04-02T11:53:33;96739.81;;;1.70;100.00
32933;BME280;19444;50.518;10.870;2023-04-02T11:57:06;96726.31;;;1.66;100.00
32933;BME280;19444;50.518;10.870;2023-04-02T12:00:22;96752.84;;;1.77;100.00
32933;BME280;19444;50.518;10.870;2023-04-02T12:03:51;96748.03;;;1.74;100.00
32933;BME280;19444;50.518;10.870;2023-04-02T12:07:33;96769.88;;;1.47;100.00
32933;BME280;19444;50.518;10.870;2023-04-02T12:10:55;96776.03;;;1.53;100.00
32933;BME280;19444;50.518;10.870;2023-04-02T12:13:53;96775.31;;;1.57;100.00
32933;BME280;19444;50.518;10.870;2023-04-02T12:16:50;96776.06;;;1.75;100.00
32933;BME280;19444;50.518;10.870;2023-04-02T12:19:57;96784.84;;;1.80;100.00
32933;BME280;19444;50.518;10.870;2023-04-02T12:22:56;96775.97;;;1.48;100.00
32933;BME280;19444;50.518;10.870;2023-04-02T12:26:04;96791.25;;;1.84;100.00
32933;BME280;19444;50.518;10.870;2023-04-02T12:29:25;96809.50;;;1.47;100.00
32933;BME280;19444;50.518;10.870;2023-04-02T12:32:28;96798.03;;;1.58;100.00
32933;BME280;19444;50.518;10.870;2023-04-02T12:35:34;96812.69;;;1.66;100.00
32933;BME280;19444;50.518;10.870;2023-04-02T12:41:40;96805.56;;;1.88;100.00
32933;BME280;19444;50.518;10.870;2023-04-02T12:44:36;96805.91;;;2.14;100.00
32933;BME280;19444;50.518;10.870;2023-04-02T12:47:33;96788.13;;;2.31;100.00
32933;BME280;19444;50.518;10.870;2023-04-02T12:50:31;96800.47;;;2.25;100.00
32933;BME280;19444;50.518;10.870;2023-04-02T12:53:37;96795.69;;;2.00;100.00
32933;BME280;19444;50.518;10.870;2023-04-02T12:56:34;96818.13;;;1.98;100.00
32933;BME280;19444;50.518;10.870;2023-04-02T12:59:35;96800.53;;;2.09;100.00
32933;BME280;19444;50.518;10.870;2023-04-02T13:02:47;96807.09;;;2.28;100.00
32933;BME280;19444;50.518;10.870;2023-04-02T13:05:52;96807.88;;;2.23;100.00
32933;BME280;19444;50.518;10.870;2023-04-02T13:08:50;96821.09;;;2.23;100.00
32933;BME280;19444;50.518;10.870;2023-04-02T13:11:48;96832.00;;;2.10;100.00
32933;BME280;19444;50.518;10.870;2023-04-02T13:14:44;96818.09;;;1.76;100.00
32933;BME280;19444;50.518;10.870;2023-04-02T13:17:45;96824.31;;;1.87;100.00
32933;BME280;19444;50.518;10.870;2023-04-02T13:24:37;96827.09;;;2.19;100.00
32933;BME280;19444;50.518;10.870;2023-04-02T13:27:33;96845.59;;;2.19;100.00
32933;BME280;19444;50.518;10.870;2023-04-02T13:30:30;96847.16;;;2.15;100.00
32933;BME280;19444;50.518;10.870;2023-04-02T13:33:27;96848.25;;;1.80;100.00
32933;BME280;19444;50.518;10.870;2023-04-02T13:36:24;96858.00;;;1.96;100.00
32933;BME280;19444;50.518;10.870;2023-04-02T13:39:22;96855.34;;;2.35;100.00
32933;BME280;19444;50.518;10.870;2023-04-02T13:42:19;96862.88;;;2.26;100.00
32933;BME280;19444;50.518;10.870;2023-04-02T13:45:27;96862.84;;;2.21;100.00
32933;BME280;19444;50.518;10.870;2023-04-02T13:48:24;96864.56;;;2.33;100.00
32933;BME280;19444;50.518;10.870;2023-04-02T13:51:35;96866.56;;;2.04;100.00
32933;BME280;19444;50.518;10.870;2023-04-02T13:54:50;96874.50;;;2.04;100.00
32933;BME280;19444;50.518;10.870;2023-04-02T13:57:48;96869.28;;;2.09;100.00
32933;BME280;19444;50.518;10.870;2023-04-02T14:00:46;96877.44;;;2.07;100.00
32933;BME280;19444;50.518;10.870;2023-04-02T14:03:43;96887.38;;;2.00;100.00
32933;BME280;19444;50.518;10.870;2023-04-02T14:08:15;96888.63;;;1.76;100.00
32933;BME280;19444;50.518;10.870;2023-04-02T14:19:08;96917.75;;;1.97;100.00
32933;BME280;19444;50.518;10.870;2023-04-02T14:25:56;96931.72;;;1.76;100.00
32933;BME280;19444;50.518;10.870;2023-04-02T14:32:52;96926.22;;;2.16;100.00
32933;BME280;19444;50.518;10.870;2023-04-02T14:36:05;96933.25;;;2.27;100.00
32933;BME280;19444;50.518;10.870;2023-04-02T14:39:24;96923.00;;;2.31;100.00
32933;BME280;19444;50.518;10.870;2023-04-02T14:42:35;96926.72;;;1.96;100.00
32933;BME280;19444;50.518;10.870;2023-04-02T14:45:59;96934.56;;;1.91;100.00
32933;BME280;19444;50.518;10.870;2023-04-02T14:49:24;96938.00;;;2.09;100.00
32933;BME280;19444;50.518;10.870;2023-04-02T14:52:26;96946.97;;;2.08;100.00
32933;BME280;19444;50.518;10.870;2023-04-02T14:55:33;96948.66;;;1.80;100.00
32933;BME280;19444;50.518;10.870;2023-04-02T14:58:40;96960.94;;;1.86;100.00
32933;BME280;19444;50.518;10.870;2023-04-02T15:01:42;96952.03;;;1.76;100.00
32933;BME280;19444;50.518;10.870;2023-04-02T15:04:48;96963.72;;;1.96;100.00
32933;BME280;19444;50.518;10.870;2023-04-02T15:08:17;96963.88;;;2.23;100.00
32933;BME280;19444;50.518;10.870;2023-04-02T15:11:46;96953.47;;;2.17;100.00
32933;BME280;19444;50.518;10.870;2023-04-02T15:14:47;96963.00;;;2.01;100.00
32933;BME280;19444;50.518;10.870;2023-04-02T15:17:46;96953.16;;;1.96;100.00
32933;BME280;19444;50.518;10.870;2023-04-02T15:21:14;96963.63;;;1.91;100.00
32933;BME280;19444;50.518;10.870;2023-04-02T15:24:52;96966.78;;;1.88;100.00
32933;BME280;19444;50.518;10.870;2023-04-02T15:28:03;96982.13;;;2.08;100.00
32933;BME280;19444;50.518;10.870;2023-04-02T15:31:07;96981.59;;;2.06;100.00
32933;BME280;19444;50.518;10.870;2023-04-02T15:34:28;96983.19;;;2.07;100.00
32933;BME280;19444;50.518;10.870;2023-04-02T15:37:46;96977.75;;;1.97;100.00
32933;BME280;19444;50.518;10.870;2023-04-02T15:41:09;96989.28;;;2.08;100.00
32933;BME280;19444;50.518;10.870;2023-04-02T15:44:15;96993.84;;;2.12;100.00
32933;BME280;19444;50.518;10.870;2023-04-02T15:47:42;97000.66;;;2.25;100.00
32933;BME280;19444;50.518;10.870;2023-04-02T15:50:57;97000.94;;;2.28;100.00
32933;BME280;19444;50.518;10.870;2023-04-02T16:01:51;97024.38;;;2.20;100.00
32933;BME280;19444;50.518;10.870;2023-04-02T16:08:28;97026.78;;;2.05;100.00
32933;BME280;19444;50.518;10.870;2023-04-02T16:11:29;97032.44;;;1.96;100.00
32933;BME280;19444;50.518;10.870;2023-04-02T16:14:29;97045.97;;;2.00;100.00
32933;BME280;19444;50.518;10.870;2023-04-02T16:17:36;97042.63;;;2.05;100.00
32933;BME280;19444;50.518;10.870;2023-04-02T16:20:40;97045.91;;;1.95;100.00
32933;BME280;19444;50.518;10.870;2023-04-02T16:23:41;97052.56;;;1.97;100.00
32933;BME280;19444;50.518;10.870;2023-04-02T16:34:24;97069.56;;;2.02;100.00
32933;BME280;19444;50.518;10.870;2023-04-02T16:37:49;97077.31;;;2.25;100.00
32933;BME280;19444;50.518;10.870;2023-04-02T16:41:26;97082.44;;;1.98;100.00
32933;BME280;19444;50.518;10.870;2023-04-02T16:44:46;97077.78;;;1.88;100.00
32933;BME280;19444;50.518;10.870;2023-04-02T16:48:07;97078.94;;;1.81;100.00
32933;BME280;19444;50.518;10.870;2023-04-02T16:55:03;97084.28;;;1.69;100.00
32933;BME280;19444;50.518;10.870;2023-04-02T16:58:32;97073.59;;;1.76;100.00
32933;BME280;19444;50.518;10.870;2023-04-02T17:08:43;97096.59;;;1.92;100.00
32933;BME280;19444;50.518;10.870;2023-04-02T17:12:19;97098.41;;;1.75;100.00
32933;BME280;19444;50.518;10.870;2023-04-02T17:15:29;97095.47;;;1.88;100.00
32933;BME280;19444;50.518;10.870;2023-04-02T17:18:27;97106.22;;;1.69;100.00
32933;BME280;19444;50.518;10.870;2023-04-02T17:21:27;97106.56;;;1.73;100.00
32933;BME280;19444;50.518;10.870;2023-04-02T17:24:41;97115.00;;;1.87;100.00
32933;BME280;19444;50.518;10.870;2023-04-02T17:27:44;97117.00;;;1.80;100.00
32933;BME280;19444;50.518;10.870;2023-04-02T17:30:48;97123.13;;;1.68;100.00
32933;BME280;19444;50.518;10.870;2023-04-02T17:33:46;97120.13;;;1.77;100.00
32933;BME280;19444;50.518;10.870;2023-04-02T17:37:29;97123.19;;;1.74;100.00
32933;BME280;19444;50.518;10.870;2023-04-02T17:41:18;97129.69;;;1.66;100.00
32933;BME280;19444;50.518;10.870;2023-04-02T17:51:59;97134.72;;;1.67;100.00
32933;BME280;19444;50.518;10.870;2023-04-02T17:55:14;97139.03;;;1.57;100.00
32933;BME280;19444;50.518;10.870;2023-04-02T18:01:52;97142.91;;;1.54;100.00
32933;BME280;19444;50.518;10.870;2023-04-02T18:05:28;97147.13;;;1.67;100.00
32933;BME280;19444;50.518;10.870;2023-04-02T18:08:53;97145.47;;;1.49;100.00
32933;BME280;19444;50.518;10.870;2023-04-02T18:16:05;97156.16;;;1.42;100.00
32933;BME280;19444;50.518;10.870;2023-04-02T18:19:02;97157.78;;;1.72;100.00
32933;BME280;19444;50.518;10.870;2023-04-02T18:22:13;97166.22;;;1.57;100.00